createdAt,value
2023-04-01T00:00:14.385Z,62.37
2023-04-01T00:02:47.017Z,62.51
2023-04-01T00:05:19.488Z,62.41
2023-04-01T00:07:52.105Z,62.56
2023-04-01T00:10:24.493Z,62.54
2023-04-01T00:12:56.821Z,62.32
2023-04-01T00:15:29.371Z,62.60
2023-04-01T00:18:02.091Z,62.90
2023-04-01T00:20:34.536Z,62.52
2023-04-01T00:23:07.000Z,62.35
2023-04-01T00:25:39.457Z,62.65
2023-04-01T00:28:11.971Z,62.23
2023-04-01T00:30:44.425Z,62.73
2023-04-01T00:33:17.628Z,62.40
2023-04-01T00:35:50.039Z,62.14
2023-04-01T00:38:22.870Z,62.48
2023-04-01T00:40:59.652Z,62.74
2023-04-01T00:43:32.753Z,62.27
2023-04-01T00:46:05.321Z,62.17
2023-04-01T00:48:42.784Z,62.41
2023-04-01T00:51:19.641Z,62.46
2023-04-01T00:53:54.832Z,62.77
2023-04-01T00:56:33.391Z,62.35
2023-04-01T00:59:11.983Z,61.93
2023-04-01T01:01:44.352Z,62.70
2023-04-01T01:04:31.964Z,62.13
2023-04-01T01:07:23.147Z,62.30
2023-04-01T01:10:01.541Z,62.74
2023-04-01T01:12:47.506Z,62.27
2023-04-01T01:15:27.215Z,62.50
2023-04-01T01:18:41.897Z,62.16
2023-04-01T01:21:21.119Z,62.06
2023-04-01T01:24:09.024Z,62.25
2023-04-01T01:26:50.348Z,62.40
2023-04-01T01:29:43.265Z,61.83
2023-04-01T01:32:25.082Z,62.00
2023-04-01T01:35:27.891Z,62.31
2023-04-01T01:38:07.518Z,62.57
2023-04-01T01:40:44.200Z,62.35
2023-04-01T01:43:20.768Z,62.09
2023-04-01T01:45:57.356Z,62.04
2023-04-01T01:48:32.135Z,62.52
2023-04-01T01:51:07.512Z,62.20
2023-04-01T01:53:40.070Z,62.36
2023-04-01T01:56:14.898Z,62.29
2023-04-01T01:58:53.061Z,62.48
2023-04-01T02:01:34.160Z,62.26
2023-04-01T02:04:16.683Z,62.17
2023-04-01T02:07:09.900Z,62.05
2023-04-01T02:09:43.128Z,62.19
2023-04-01T02:12:18.483Z,62.23
2023-04-01T02:15:06.883Z,61.45
2023-04-01T02:17:44.990Z,61.98
2023-04-01T02:20:22.107Z,62.12
2023-04-01T02:22:57.009Z,62.16
2023-04-01T02:25:34.939Z,61.86
2023-04-01T02:28:10.026Z,61.84
2023-04-01T02:30:45.118Z,61.98
2023-04-01T02:33:20.173Z,61.77
2023-04-01T02:35:52.619Z,61.97
2023-04-01T02:38:25.045Z,62.10
2023-04-01T02:41:00.632Z,61.93
2023-04-01T02:43:33.415Z,62.03
2023-04-01T02:46:05.834Z,61.64
2023-04-01T02:48:38.431Z,61.72
2023-04-01T02:51:11.112Z,62.31
2023-04-01T02:53:43.465Z,62.05
2023-04-01T02:56:16.026Z,62.07
2023-04-01T02:58:48.889Z,61.74
2023-04-01T03:01:21.755Z,61.86
2023-04-01T03:03:54.093Z,61.78
2023-04-01T03:06:26.512Z,61.77
2023-04-01T03:08:58.913Z,61.60
2023-04-01T03:11:32.303Z,62.03
2023-04-01T03:14:04.735Z,61.77
2023-04-01T03:16:37.223Z,61.89
2023-04-01T03:19:09.646Z,61.47
2023-04-01T03:21:42.213Z,62.05
2023-04-01T03:24:14.635Z,62.13
2023-04-01T03:26:47.068Z,62.26
2023-04-01T03:29:19.561Z,61.72
2023-04-01T03:31:51.980Z,61.95
2023-04-01T03:34:25.201Z,61.86
2023-04-01T03:36:57.886Z,61.78
2023-04-01T03:39:31.692Z,61.93
2023-04-01T03:42:04.296Z,62.00
2023-04-01T03:44:36.836Z,62.22
2023-04-01T03:47:10.858Z,61.80
2023-04-01T03:49:45.400Z,61.83
2023-04-01T03:52:18.026Z,61.86
2023-04-01T03:54:50.660Z,61.65
2023-04-01T03:57:23.445Z,61.69
2023-04-01T03:59:56.086Z,61.59
2023-04-01T04:02:28.565Z,61.99
2023-04-01T04:05:01.068Z,62.08
2023-04-01T04:07:36.284Z,61.85
2023-04-01T04:10:11.711Z,61.75
2023-04-01T04:12:44.341Z,61.94
2023-04-01T04:15:17.368Z,61.82
2023-04-01T04:17:49.903Z,61.46
2023-04-01T04:20:22.370Z,61.50
2023-04-01T04:22:55.131Z,61.67
2023-04-01T04:25:27.623Z,61.88
2023-04-01T04:27:59.956Z,61.78
2023-04-01T04:30:32.291Z,62.00
2023-04-01T04:33:04.943Z,61.61
2023-04-01T04:35:37.455Z,61.80
2023-04-01T04:38:10.557Z,61.97
2023-04-01T04:40:43.747Z,61.72
2023-04-01T04:43:18.350Z,62.15
2023-04-01T04:45:50.729Z,61.66
2023-04-01T04:48:23.900Z,61.67
2023-04-01T04:50:56.370Z,61.09
2023-04-01T04:53:30.398Z,61.63
2023-04-01T04:56:02.904Z,62.15
2023-04-01T04:58:49.987Z,61.43
2023-04-01T05:01:30.189Z,61.99
2023-04-01T05:04:02.607Z,61.64
2023-04-01T05:06:35.169Z,61.69
2023-04-01T05:09:07.736Z,61.88
2023-04-01T05:11:40.116Z,61.58
2023-04-01T05:14:18.409Z,61.60
2023-04-01T05:16:59.634Z,61.87
2023-04-01T05:19:32.121Z,61.70
2023-04-01T05:22:05.105Z,61.75
2023-04-01T05:24:38.057Z,61.53
2023-04-01T05:27:10.429Z,61.52
2023-04-01T05:29:51.911Z,61.34
2023-04-01T05:32:42.809Z,61.63
2023-04-01T05:35:15.498Z,61.52
2023-04-01T05:37:48.084Z,61.70
2023-04-01T05:40:20.664Z,61.88
2023-04-01T05:42:52.999Z,62.12
2023-04-01T05:45:25.588Z,61.80
2023-04-01T05:48:09.689Z,61.57
2023-04-01T05:50:45.196Z,61.96
2023-04-01T05:53:17.780Z,62.06
2023-04-01T05:55:50.457Z,62.15
2023-04-01T05:58:24.444Z,62.11
2023-04-01T06:01:09.474Z,61.90
2023-04-01T06:03:42.776Z,61.96
2023-04-01T06:06:27.378Z,62.08
2023-04-01T06:09:30.204Z,62.33
2023-04-01T06:12:09.105Z,62.31
2023-04-01T06:15:29.177Z,62.50
2023-04-01T06:18:09.154Z,62.50
2023-04-01T06:21:13.302Z,62.37
2023-04-01T06:24:27.734Z,62.87
2023-04-01T06:27:17.492Z,62.48
2023-04-01T06:30:14.699Z,62.73
2023-04-01T06:32:56.364Z,62.65
2023-04-01T06:36:05.984Z,62.85
2023-04-01T06:38:50.528Z,62.87
2023-04-01T06:41:46.706Z,63.02
2023-04-01T06:44:46.059Z,62.54
2023-04-01T06:47:59.644Z,63.37
2023-04-01T06:51:11.224Z,63.19
2023-04-01T06:54:11.998Z,63.06
2023-04-01T06:57:24.640Z,63.23
2023-04-01T07:00:00.841Z,63.39
2023-04-01T07:02:45.550Z,63.14
2023-04-01T07:05:18.022Z,63.18
2023-04-01T07:07:55.015Z,63.06
2023-04-01T07:10:39.411Z,62.86
2023-04-01T07:13:39.992Z,62.95
2023-04-01T07:16:28.024Z,63.51
2023-04-01T07:19:18.651Z,62.84
2023-04-01T07:22:36.287Z,63.25
2023-04-01T07:25:27.214Z,63.29
2023-04-01T07:28:18.179Z,63.27
2023-04-01T07:31:42.371Z,63.35
2023-04-01T07:34:31.774Z,62.69
2023-04-01T07:37:16.271Z,63.43
2023-04-01T07:40:28.313Z,63.04
2023-04-01T07:43:20.005Z,62.90
2023-04-01T07:46:24.648Z,62.91
2023-04-01T07:49:09.084Z,63.10
2023-04-01T07:52:19.681Z,63.07
2023-04-01T07:55:00.462Z,62.86
2023-04-01T07:58:08.674Z,63.06
2023-04-01T08:00:50.707Z,62.73
2023-04-01T08:03:39.900Z,62.87
2023-04-01T08:06:32.502Z,63.04
2023-04-01T08:09:22.886Z,63.16
2023-04-01T08:12:18.494Z,62.79
2023-04-01T08:15:29.612Z,62.84
2023-04-01T08:18:29.819Z,62.91
2023-04-01T08:21:06.783Z,63.01
2023-04-01T08:23:49.504Z,62.80
2023-04-01T08:26:46.143Z,62.86
2023-04-01T08:29:24.859Z,62.87
2023-04-01T08:32:11.506Z,63.06
2023-04-01T08:34:49.557Z,62.92
2023-04-01T08:37:36.477Z,62.98
2023-04-01T08:40:12.234Z,63.48
2023-04-01T08:42:53.413Z,63.15
2023-04-01T08:45:35.012Z,62.96
2023-04-01T08:48:25.147Z,63.06
2023-04-01T08:51:34.280Z,62.85
2023-04-01T08:54:31.973Z,62.42
2023-04-01T08:57:09.393Z,62.93
2023-04-01T09:00:10.339Z,62.86
2023-04-01T09:03:13.925Z,62.47
2023-04-01T09:05:56.453Z,62.43
2023-04-01T09:09:02.663Z,62.02
2023-04-01T09:12:22.739Z,62.82
2023-04-01T09:14:56.027Z,62.57
2023-04-01T09:18:20.187Z,62.30
2023-04-01T09:21:13.948Z,62.53
2023-04-01T09:24:31.673Z,62.29
2023-04-01T09:27:15.953Z,62.50
2023-04-01T09:30:22.906Z,62.11
2023-04-01T09:32:58.109Z,62.27
2023-04-01T09:36:03.932Z,62.08
2023-04-01T09:39:00.532Z,62.29
2023-04-01T09:42:09.012Z,62.09
2023-04-01T09:45:01.637Z,62.09
2023-04-01T09:47:53.495Z,61.86
2023-04-01T09:50:35.289Z,61.84
2023-04-01T09:53:33.824Z,62.06
2023-04-01T09:56:09.589Z,62.20
2023-04-01T09:59:18.196Z,61.78
2023-04-01T10:02:35.324Z,62.23
2023-04-01T10:05:40.663Z,62.28
2023-04-01T10:08:43.256Z,62.26
2023-04-01T10:11:42.443Z,62.18
2023-04-01T10:14:17.911Z,62.13
2023-04-01T10:16:54.164Z,62.26
2023-04-01T10:20:05.005Z,61.96
2023-04-01T10:22:54.824Z,62.35
2023-04-01T10:25:49.238Z,62.36
2023-04-01T10:28:36.889Z,62.20
2023-04-01T10:31:39.775Z,62.55
2023-04-01T10:34:48.237Z,62.42
2023-04-01T10:37:59.864Z,62.36
2023-04-01T10:41:12.483Z,62.77
2023-04-01T10:44:50.828Z,62.72
2023-04-01T10:47:52.099Z,63.29
2023-04-01T10:50:59.555Z,62.99
2023-04-01T10:53:43.985Z,63.08
2023-04-01T10:56:48.160Z,63.55
2023-04-01T10:59:50.448Z,63.57
2023-04-01T11:03:02.129Z,63.60
2023-04-01T11:06:14.577Z,63.39
2023-04-01T11:09:11.160Z,64.17
2023-04-01T11:12:08.666Z,63.41
2023-04-01T11:15:02.761Z,64.02
2023-04-01T11:17:35.097Z,63.84
2023-04-01T11:20:25.923Z,63.80
2023-04-01T11:23:22.777Z,63.84
2023-04-01T11:26:03.090Z,63.95
2023-04-01T11:29:00.519Z,63.80
2023-04-01T11:31:36.266Z,63.84
2023-04-01T11:34:25.513Z,63.88
2023-04-01T11:37:09.320Z,63.91
2023-04-01T11:40:24.676Z,63.67
2023-04-01T11:43:33.500Z,63.76
2023-04-01T11:46:40.311Z,63.44
2023-04-01T11:49:54.561Z,63.25
2023-04-01T11:52:36.512Z,63.49
2023-04-01T11:55:25.376Z,63.56
2023-04-01T11:58:06.932Z,62.88
2023-04-01T12:00:54.103Z,63.00
2023-04-01T12:04:12.380Z,63.19
2023-04-01T12:07:21.860Z,63.24
2023-04-01T12:10:19.708Z,62.69
2023-04-01T12:13:31.196Z,62.44
2023-04-01T12:16:22.050Z,63.30
2023-04-01T12:19:06.080Z,63.05
2023-04-01T12:21:50.999Z,62.67
2023-04-01T12:24:50.218Z,62.80
2023-04-01T12:27:37.559Z,62.94
2023-04-01T12:30:29.993Z,62.80
2023-04-01T12:33:02.407Z,62.39
2023-04-01T12:36:09.668Z,62.65
2023-04-01T12:39:01.087Z,62.43
2023-04-01T12:41:56.839Z,63.03
2023-04-01T12:44:42.656Z,62.57
2023-04-01T12:47:27.190Z,62.57
2023-04-01T12:50:17.610Z,62.49
2023-04-01T12:52:58.913Z,62.52
2023-04-01T12:55:40.256Z,62.41
2023-04-01T12:58:50.320Z,62.38
2023-04-01T13:01:56.898Z,62.07
2023-04-01T13:04:42.889Z,62.48
2023-04-01T13:07:40.325Z,62.00
2023-04-01T13:10:34.833Z,62.44
2023-04-01T13:13:10.566Z,62.25
2023-04-01T13:16:09.835Z,62.46
2023-04-01T13:18:53.931Z,62.51
2023-04-01T13:21:37.329Z,61.92
2023-04-01T13:24:18.847Z,62.14
2023-04-01T13:26:58.566Z,62.16
2023-04-01T13:29:46.039Z,61.99
2023-04-01T13:32:40.728Z,62.12
2023-04-01T13:35:25.827Z,61.94
2023-04-01T13:38:16.530Z,62.11
2023-04-01T13:41:07.330Z,62.11
2023-04-01T13:44:08.168Z,62.06
2023-04-01T13:47:05.979Z,62.41
2023-04-01T13:49:44.209Z,62.02
2023-04-01T13:52:31.909Z,61.97
2023-04-01T13:55:16.536Z,61.75
2023-04-01T13:58:26.847Z,61.91
2023-04-01T14:01:08.954Z,61.94
2023-04-01T14:03:50.584Z,61.59
2023-04-01T14:06:51.323Z,62.12
2023-04-01T14:10:02.094Z,61.42
2023-04-01T14:12:49.094Z,61.80
2023-04-01T14:15:51.498Z,61.80
2023-04-01T14:18:30.007Z,61.72
2023-04-01T14:21:19.983Z,62.31
2023-04-01T14:24:10.551Z,62.04
2023-04-01T14:26:57.922Z,61.76
2023-04-01T14:29:54.769Z,61.75
2023-04-01T14:32:30.137Z,61.74
2023-04-01T14:35:39.582Z,61.79
2023-04-01T14:38:36.421Z,61.33
2023-04-01T14:41:46.007Z,61.94
2023-04-01T14:45:02.677Z,62.18
2023-04-01T14:47:43.741Z,62.39
2023-04-01T14:50:31.681Z,61.94
2023-04-01T14:53:13.100Z,61.93
2023-04-01T14:55:52.303Z,61.63
2023-04-01T14:58:38.916Z,61.86
2023-04-01T15:01:29.722Z,61.85
2023-04-01T15:04:30.446Z,61.77
2023-04-01T15:07:02.871Z,61.79
2023-04-01T15:09:49.646Z,61.83
2023-04-01T15:12:34.789Z,61.39
2023-04-01T15:15:19.142Z,62.21
2023-04-01T15:18:00.425Z,62.16
2023-04-01T15:21:01.512Z,61.79
2023-04-01T15:23:49.000Z,61.89
2023-04-01T15:27:04.320Z,61.94
2023-04-01T15:29:42.241Z,61.87
2023-04-01T15:32:25.046Z,62.08
2023-04-01T15:35:20.890Z,61.90
2023-04-01T15:38:07.860Z,61.73
2023-04-01T15:40:46.495Z,62.01
2023-04-01T15:43:46.523Z,61.94
2023-04-01T15:46:43.590Z,61.85
2023-04-01T15:49:52.644Z,61.80
2023-04-01T15:53:12.776Z,61.87
2023-04-01T15:55:45.576Z,61.74
2023-04-01T15:58:41.660Z,61.79
2023-04-01T16:01:17.101Z,61.94
2023-04-01T16:03:55.027Z,61.72
2023-04-01T16:06:36.581Z,61.88
2023-04-01T16:09:14.702Z,61.93
2023-04-01T16:12:16.152Z,61.64
2023-04-01T16:15:24.529Z,62.03
2023-04-01T16:18:09.752Z,61.84
2023-04-01T16:21:11.391Z,61.77
2023-04-01T16:24:04.053Z,62.29
2023-04-01T16:26:54.746Z,61.96
2023-04-01T16:29:47.938Z,61.60
2023-04-01T16:32:21.468Z,61.70
2023-04-01T16:35:01.663Z,62.04
2023-04-01T16:37:42.444Z,62.18
2023-04-01T16:40:33.415Z,62.28
2023-04-01T16:43:29.310Z,62.31
2023-04-01T16:46:22.731Z,62.29
2023-04-01T16:49:13.906Z,61.85
2023-04-01T16:51:52.248Z,62.24
2023-04-01T16:54:43.522Z,62.03
2023-04-01T16:57:21.315Z,62.28
2023-04-01T17:00:05.419Z,62.12
2023-04-01T17:02:52.399Z,62.40
2023-04-01T17:05:38.845Z,62.42
2023-04-01T17:08:26.245Z,62.53
2023-04-01T17:11:10.269Z,62.48
2023-04-01T17:13:56.121Z,62.52
2023-04-01T17:16:54.096Z,62.59
2023-04-01T17:19:47.304Z,62.57
2023-04-01T17:22:48.242Z,62.62
2023-04-01T17:25:34.133Z,62.50
2023-04-01T17:28:29.731Z,62.53
2023-04-01T17:31:20.558Z,62.45
2023-04-01T17:34:04.431Z,62.70
2023-04-01T17:36:49.362Z,62.70
2023-04-01T17:39:27.308Z,62.65
2023-04-01T17:42:35.988Z,62.74
2023-04-01T17:45:26.008Z,62.52
2023-04-01T17:48:25.472Z,62.55
2023-04-01T17:51:05.014Z,62.47
2023-04-01T17:53:56.492Z,62.53
2023-04-01T17:56:40.198Z,62.70
2023-04-01T17:59:38.472Z,62.67
2023-04-01T18:02:22.624Z,63.10
2023-04-01T18:05:22.015Z,62.90
2023-04-01T18:08:10.168Z,63.05
2023-04-01T18:10:55.550Z,63.68
2023-04-01T18:13:30.604Z,63.79
2023-04-01T18:16:32.512Z,63.55
2023-04-01T18:19:20.618Z,64.25
2023-04-01T18:21:57.445Z,64.08
2023-04-01T18:24:38.749Z,64.01
2023-04-01T18:27:17.632Z,64.36
2023-04-01T18:30:03.307Z,64.52
2023-04-01T18:32:58.454Z,64.85
2023-04-01T18:35:53.328Z,64.63
2023-04-01T18:38:39.382Z,64.90
2023-04-01T18:41:20.796Z,64.86
2023-04-01T18:44:28.118Z,65.02
2023-04-01T18:47:22.123Z,65.14
2023-04-01T18:49:57.436Z,65.24
2023-04-01T18:52:41.478Z,64.84
2023-04-01T18:55:51.328Z,65.43
2023-04-01T18:58:30.837Z,64.87
2023-04-01T19:01:26.577Z,65.28
2023-04-01T19:04:38.355Z,65.58
2023-04-01T19:07:32.832Z,64.94
2023-04-01T19:10:22.736Z,65.04
2023-04-01T19:12:55.168Z,65.46
2023-04-01T19:16:05.767Z,65.54
2023-04-01T19:19:04.152Z,65.30
2023-04-01T19:21:57.875Z,65.73
2023-04-01T19:24:52.223Z,65.85
2023-04-01T19:27:40.356Z,65.71
2023-04-01T19:30:33.474Z,66.02
2023-04-01T19:33:27.934Z,65.61
2023-04-01T19:36:18.856Z,65.81
2023-04-01T19:38:51.396Z,65.37
2023-04-01T19:41:38.328Z,65.95
2023-04-01T19:44:47.631Z,65.76
2023-04-01T19:47:58.038Z,66.03
2023-04-01T19:50:54.132Z,65.77
2023-04-01T19:54:01.204Z,65.84
2023-04-01T19:56:49.117Z,66.10
2023-04-01T19:59:30.454Z,65.98
2023-04-01T20:02:17.515Z,66.35
2023-04-01T20:04:56.575Z,66.29
2023-04-01T20:08:19.235Z,66.04
2023-04-01T20:11:08.687Z,66.23
2023-04-01T20:14:03.020Z,66.33
2023-04-01T20:17:10.538Z,66.70
2023-04-01T20:19:55.127Z,66.88
2023-04-01T20:22:48.723Z,67.01
2023-04-01T20:25:34.083Z,66.95
2023-04-01T20:28:15.663Z,66.88
2023-04-01T20:30:53.998Z,67.05
2023-04-01T20:33:55.101Z,67.10
2023-04-01T20:37:11.652Z,66.87
2023-04-01T20:40:18.917Z,66.55
2023-04-01T20:43:45.925Z,66.69
2023-04-01T20:47:00.823Z,66.61
2023-04-01T20:49:43.277Z,66.42
2023-04-01T20:52:15.657Z,66.70
2023-04-01T20:55:28.295Z,66.57
2023-04-01T20:58:38.561Z,66.73
2023-04-01T21:02:03.207Z,66.56
2023-04-01T21:04:56.251Z,66.13
2023-04-01T21:07:35.392Z,66.37
2023-04-01T21:10:46.918Z,66.33
2023-04-01T21:13:31.491Z,65.76
2023-04-01T21:16:24.227Z,65.97
2023-04-01T21:19:06.376Z,66.14
2023-04-01T21:21:47.799Z,66.23
2023-04-01T21:24:57.886Z,66.04
2023-04-01T21:27:48.507Z,65.90
2023-04-01T21:30:42.310Z,65.95
2023-04-01T21:33:30.954Z,65.95
2023-04-01T21:36:22.357Z,65.74
2023-04-01T21:39:19.545Z,66.10
2023-04-01T21:42:07.974Z,65.83
2023-04-01T21:44:49.887Z,65.66
2023-04-01T21:48:00.178Z,65.74
2023-04-01T21:51:23.864Z,65.60
2023-04-01T21:54:21.014Z,65.65
2023-04-01T21:57:51.804Z,65.68
2023-04-01T22:00:34.402Z,65.68
2023-04-01T22:03:27.793Z,65.70
2023-04-01T22:06:29.045Z,65.32
2023-04-01T22:09:09.784Z,65.31
2023-04-01T22:11:58.557Z,65.07
2023-04-01T22:14:48.275Z,64.92
2023-04-01T22:17:39.692Z,64.90
2023-04-01T22:20:41.243Z,64.81
2023-04-01T22:23:36.956Z,65.49
2023-04-01T22:26:40.044Z,65.09
2023-04-01T22:29:26.697Z,64.94
2023-04-01T22:32:22.818Z,64.64
2023-04-01T22:35:14.674Z,64.67
2023-04-01T22:38:04.864Z,64.92
2023-04-01T22:41:02.121Z,64.69
2023-04-01T22:43:39.547Z,64.93
2023-04-01T22:46:51.182Z,64.86
2023-04-01T22:49:38.476Z,64.92
2023-04-01T22:52:22.774Z,64.72
2023-04-01T22:55:04.109Z,65.16
2023-04-01T22:57:39.642Z,64.77
2023-04-01T23:00:29.126Z,64.80
2023-04-01T23:03:24.761Z,64.69
2023-04-01T23:06:00.129Z,64.79
2023-04-01T23:08:41.797Z,64.87
2023-04-01T23:11:27.543Z,64.62
2023-04-01T23:14:21.080Z,64.38
2023-04-01T23:17:06.473Z,64.53
2023-04-01T23:20:11.770Z,64.58
2023-04-01T23:23:21.636Z,64.04
2023-04-01T23:26:06.181Z,64.30
2023-04-01T23:28:47.245Z,64.02
2023-04-01T23:31:30.538Z,64.41
2023-04-01T23:34:13.798Z,64.09
2023-04-01T23:36:53.698Z,64.28
2023-04-01T23:39:38.635Z,64.10
2023-04-01T23:42:24.156Z,63.86
2023-04-01T23:44:59.071Z,64.10
2023-04-01T23:47:36.252Z,63.98
2023-04-01T23:50:15.384Z,63.94
2023-04-01T23:52:50.224Z,64.09
2023-04-01T23:55:33.416Z,63.83
2023-04-01T23:58:19.362Z,63.72
